sensor_id;sensor_type;location;lat;lon;timestamp;pressure;altitude;pressure_sealevel;temperature
11240;BMP180;5677;48.488;13.436;2022-08-01T00:01:18;97677.00;;;23.60
11240;BMP180;5677;48.488;13.436;2022-08-01T00:03:45;97685.00;;;23.60
11240;BMP180;5677;48.488;13.436;2022-08-01T00:06:12;97678.00;;;23.60
11240;BMP180;5677;48.488;13.436;2022-08-01T00:08:39;97678.00;;;23.60
11240;BMP180;5677;48.488;13.436;2022-08-01T00:11:07;97675.00;;;23.60
11240;BMP180;5677;48.488;13.436;2022-08-01T00:13:35;97671.00;;;23.60
11240;BMP180;5677;48.488;13.436;2022-08-01T00:16:03;97675.00;;;23.60
11240;BMP180;5677;48.488;13.436;2022-08-01T00:18:30;97674.00;;;23.60
11240;BMP180;5677;48.488;13.436;2022-08-01T00:20:56;97672.00;;;23.60
11240;BMP180;5677;48.488;13.436;2022-08-01T00:23:23;97670.00;;;23.60
11240;BMP180;5677;48.488;13.436;2022-08-01T00:25:50;97666.00;;;23.60
11240;BMP180;5677;48.488;13.436;2022-08-01T00:28:19;97665.00;;;23.60
11240;BMP180;5677;48.488;13.436;2022-08-01T00:30:46;97664.00;;;23.60
11240;BMP180;5677;48.488;13.436;2022-08-01T00:33:12;97663.00;;;23.60
11240;BMP180;5677;48.488;13.436;2022-08-01T00:35:39;97660.00;;;23.60
11240;BMP180;5677;48.488;13.436;2022-08-01T00:38:06;97664.00;;;23.60
11240;BMP180;5677;48.488;13.436;2022-08-01T00:40:33;97659.00;;;23.60
11240;BMP180;5677;48.488;13.436;2022-08-01T00:43:00;97666.00;;;23.60
11240;BMP180;5677;48.488;13.436;2022-08-01T00:45:29;97656.00;;;23.50
11240;BMP180;5677;48.488;13.436;2022-08-01T00:47:55;97665.00;;;23.60
11240;BMP180;5677;48.488;13.436;2022-08-01T00:50:23;97658.00;;;23.50
11240;BMP180;5677;48.488;13.436;2022-08-01T00:52:51;97658.00;;;23.50
11240;BMP180;5677;48.488;13.436;2022-08-01T00:55:19;97654.00;;;23.50
11240;BMP180;5677;48.488;13.436;2022-08-01T00:57:46;97649.00;;;23.50
11240;BMP180;5677;48.488;13.436;2022-08-01T01:00:14;97652.00;;;23.50
11240;BMP180;5677;48.488;13.436;2022-08-01T01:02:43;97652.00;;;23.50
11240;BMP180;5677;48.488;13.436;2022-08-01T01:05:10;97648.00;;;23.50
11240;BMP180;5677;48.488;13.436;2022-08-01T01:07:46;97641.00;;;23.50
11240;BMP180;5677;48.488;13.436;2022-08-01T01:10:21;97641.00;;;23.50
11240;BMP180;5677;48.488;13.436;2022-08-01T01:12:59;97644.00;;;23.50
11240;BMP180;5677;48.488;13.436;2022-08-01T01:15:34;97643.00;;;23.50
11240;BMP180;5677;48.488;13.436;2022-08-01T01:18:09;97646.00;;;23.50
11240;BMP180;5677;48.488;13.436;2022-08-01T01:20:42;97649.00;;;23.50
11240;BMP180;5677;48.488;13.436;2022-08-01T01:23:40;97649.00;;;23.50
11240;BMP180;5677;48.488;13.436;2022-08-01T01:26:29;97647.00;;;23.50
11240;BMP180;5677;48.488;13.436;2022-08-01T01:29:09;97646.00;;;23.50
11240;BMP180;5677;48.488;13.436;2022-08-01T01:31:45;97647.00;;;23.50
11240;BMP180;5677;48.488;13.436;2022-08-01T01:34:15;97640.00;;;23.50
11240;BMP180;5677;48.488;13.436;2022-08-01T01:36:46;97642.00;;;23.50
11240;BMP180;5677;48.488;13.436;2022-08-01T01:39:16;97645.00;;;23.50
11240;BMP180;5677;48.488;13.436;2022-08-01T01:41:45;97642.00;;;23.50
11240;BMP180;5677;48.488;13.436;2022-08-01T01:44:17;97644.00;;;23.50
11240;BMP180;5677;48.488;13.436;2022-08-01T01:46:46;97638.00;;;23.50
11240;BMP180;5677;48.488;13.436;2022-08-01T01:49:15;97642.00;;;23.50
11240;BMP180;5677;48.488;13.436;2022-08-01T01:51:44;97644.00;;;23.50
11240;BMP180;5677;48.488;13.436;2022-08-01T01:54:12;97638.00;;;23.50
11240;BMP180;5677;48.488;13.436;2022-08-01T01:56:41;97644.00;;;23.50
11240;BMP180;5677;48.488;13.436;2022-08-01T01:59:20;97637.00;;;23.50
11240;BMP180;5677;48.488;13.436;2022-08-01T02:01:51;97635.00;;;23.50
11240;BMP180;5677;48.488;13.436;2022-08-01T02:04:21;97631.00;;;23.50
11240;BMP180;5677;48.488;13.436;2022-08-01T02:06:51;97634.00;;;23.50
11240;BMP180;5677;48.488;13.436;2022-08-01T02:09:21;97631.00;;;23.50
11240;BMP180;5677;48.488;13.436;2022-08-01T02:11:50;97627.00;;;23.50
11240;BMP180;5677;48.488;13.436;2022-08-01T02:14:20;97626.00;;;23.50
11240;BMP180;5677;48.488;13.436;2022-08-01T02:16:49;97632.00;;;23.50
11240;BMP180;5677;48.488;13.436;2022-08-01T02:19:18;97631.00;;;23.50
11240;BMP180;5677;48.488;13.436;2022-08-01T02:21:51;97631.00;;;23.50
11240;BMP180;5677;48.488;13.436;2022-08-01T02:24:29;97629.00;;;23.50
11240;BMP180;5677;48.488;13.436;2022-08-01T02:27:05;97629.00;;;23.50
11240;BMP180;5677;48.488;13.436;2022-08-01T02:29:40;97623.00;;;23.50
11240;BMP180;5677;48.488;13.436;2022-08-01T02:32:15;97629.00;;;23.50
11240;BMP180;5677;48.488;13.436;2022-08-01T02:34:49;97633.00;;;23.50
11240;BMP180;5677;48.488;13.436;2022-08-01T02:37:18;97622.00;;;23.50
11240;BMP180;5677;48.488;13.436;2022-08-01T02:39:48;97624.00;;;23.50
11240;BMP180;5677;48.488;13.436;2022-08-01T02:42:19;97623.00;;;23.50
11240;BMP180;5677;48.488;13.436;2022-08-01T02:44:49;97629.00;;;23.50
11240;BMP180;5677;48.488;13.436;2022-08-01T02:47:19;97626.00;;;23.50
11240;BMP180;5677;48.488;13.436;2022-08-01T02:49:50;97625.00;;;23.50
11240;BMP180;5677;48.488;13.436;2022-08-01T02:52:21;97627.00;;;23.50
11240;BMP180;5677;48.488;13.436;2022-08-01T02:54:53;97623.00;;;23.50
11240;BMP180;5677;48.488;13.436;2022-08-01T02:57:23;97624.00;;;23.50
11240;BMP180;5677;48.488;13.436;2022-08-01T02:59:55;97623.00;;;23.50
11240;BMP180;5677;48.488;13.436;2022-08-01T03:02:24;97624.00;;;23.50
11240;BMP180;5677;48.488;13.436;2022-08-01T03:04:52;97626.00;;;23.50
11240;BMP180;5677;48.488;13.436;2022-08-01T03:07:20;97630.00;;;23.50
11240;BMP180;5677;48.488;13.436;2022-08-01T03:09:50;97625.00;;;23.50
11240;BMP180;5677;48.488;13.436;2022-08-01T03:12:20;97625.00;;;23.50
11240;BMP180;5677;48.488;13.436;2022-08-01T03:14:54;97629.00;;;23.40
11240;BMP180;5677;48.488;13.436;2022-08-01T03:17:25;97630.00;;;23.40
11240;BMP180;5677;48.488;13.436;2022-08-01T03:19:54;97631.00;;;23.40
11240;BMP180;5677;48.488;13.436;2022-08-01T03:22:24;97631.00;;;23.40
11240;BMP180;5677;48.488;13.436;2022-08-01T03:24:53;97638.00;;;23.40
11240;BMP180;5677;48.488;13.436;2022-08-01T03:27:24;97637.00;;;23.40
11240;BMP180;5677;48.488;13.436;2022-08-01T03:29:55;97641.00;;;23.40
11240;BMP180;5677;48.488;13.436;2022-08-01T03:32:24;97626.00;;;23.40
11240;BMP180;5677;48.488;13.436;2022-08-01T03:34:53;97637.00;;;23.40
11240;BMP180;5677;48.488;13.436;2022-08-01T03:37:26;97630.00;;;23.40
11240;BMP180;5677;48.488;13.436;2022-08-01T03:39:58;97633.00;;;23.40
11240;BMP180;5677;48.488;13.436;2022-08-01T03:42:33;97634.00;;;23.40
11240;BMP180;5677;48.488;13.436;2022-08-01T03:45:07;97640.00;;;23.40
11240;BMP180;5677;48.488;13.436;2022-08-01T03:47:36;97639.00;;;23.40
11240;BMP180;5677;48.488;13.436;2022-08-01T03:50:06;97642.00;;;23.40
11240;BMP180;5677;48.488;13.436;2022-08-01T03:52:38;97638.00;;;23.40
11240;BMP180;5677;48.488;13.436;2022-08-01T03:55:07;97643.00;;;23.40
11240;BMP180;5677;48.488;13.436;2022-08-01T03:57:36;97648.00;;;23.40
11240;BMP180;5677;48.488;13.436;2022-08-01T04:00:07;97642.00;;;23.40
11240;BMP180;5677;48.488;13.436;2022-08-01T04:02:36;97635.00;;;23.40
11240;BMP180;5677;48.488;13.436;2022-08-01T04:05:04;97639.00;;;23.40
11240;BMP180;5677;48.488;13.436;2022-08-01T04:07:34;97636.00;;;23.40
11240;BMP180;5677;48.488;13.436;2022-08-01T04:10:03;97639.00;;;23.40
11240;BMP180;5677;48.488;13.436;2022-08-01T04:12:30;97637.00;;;23.40
11240;BMP180;5677;48.488;13.436;2022-08-01T04:14:58;97646.00;;;23.40
11240;BMP180;5677;48.488;13.436;2022-08-01T04:17:26;97650.00;;;23.40
11240;BMP180;5677;48.488;13.436;2022-08-01T04:19:53;97648.00;;;23.40
11240;BMP180;5677;48.488;13.436;2022-08-01T04:22:20;97655.00;;;23.40
11240;BMP180;5677;48.488;13.436;2022-08-01T04:24:52;97658.00;;;23.40
11240;BMP180;5677;48.488;13.436;2022-08-01T04:27:25;97659.00;;;23.40
11240;BMP180;5677;48.488;13.436;2022-08-01T04:29:58;97664.00;;;23.40
11240;BMP180;5677;48.488;13.436;2022-08-01T04:32:29;97670.00;;;23.40
11240;BMP180;5677;48.488;13.436;2022-08-01T04:34:59;97670.00;;;23.40
11240;BMP180;5677;48.488;13.436;2022-08-01T04:37:30;97671.00;;;23.40
11240;BMP180;5677;48.488;13.436;2022-08-01T04:39:58;97670.00;;;23.40
11240;BMP180;5677;48.488;13.436;2022-08-01T04:42:26;97676.00;;;23.40
11240;BMP180;5677;48.488;13.436;2022-08-01T04:44:54;97672.00;;;23.40
11240;BMP180;5677;48.488;13.436;2022-08-01T04:47:22;97674.00;;;23.40
11240;BMP180;5677;48.488;13.436;2022-08-01T04:49:51;97671.00;;;23.40
11240;BMP180;5677;48.488;13.436;2022-08-01T04:52:20;97673.00;;;23.40
11240;BMP180;5677;48.488;13.436;2022-08-01T04:54:46;97669.00;;;23.40
11240;BMP180;5677;48.488;13.436;2022-08-01T04:57:13;97674.00;;;23.40
11240;BMP180;5677;48.488;13.436;2022-08-01T04:59:43;97682.00;;;23.40
11240;BMP180;5677;48.488;13.436;2022-08-01T05:02:16;97679.00;;;23.40
11240;BMP180;5677;48.488;13.436;2022-08-01T05:04:45;97693.00;;;23.40
11240;BMP180;5677;48.488;13.436;2022-08-01T05:07:14;97688.00;;;23.40
11240;BMP180;5677;48.488;13.436;2022-08-01T05:09:42;97699.00;;;23.40
11240;BMP180;5677;48.488;13.436;2022-08-01T05:12:11;97699.00;;;23.40
11240;BMP180;5677;48.488;13.436;2022-08-01T05:14:39;97701.00;;;23.40
11240;BMP180;5677;48.488;13.436;2022-08-01T05:17:08;97699.00;;;23.40
11240;BMP180;5677;48.488;13.436;2022-08-01T05:19:38;97696.00;;;23.40
11240;BMP180;5677;48.488;13.436;2022-08-01T05:22:07;97696.00;;;23.40
11240;BMP180;5677;48.488;13.436;2022-08-01T05:24:39;97706.00;;;23.40
11240;BMP180;5677;48.488;13.436;2022-08-01T05:27:07;97709.00;;;23.40
11240;BMP180;5677;48.488;13.436;2022-08-01T05:29:34;97706.00;;;23.40
11240;BMP180;5677;48.488;13.436;2022-08-01T05:32:02;97708.00;;;23.40
11240;BMP180;5677;48.488;13.436;2022-08-01T05:34:29;97710.00;;;23.40
11240;BMP180;5677;48.488;13.436;2022-08-01T05:36:56;97713.00;;;23.40
11240;BMP180;5677;48.488;13.436;2022-08-01T05:39:23;97720.00;;;23.40
11240;BMP180;5677;48.488;13.436;2022-08-01T05:41:51;97717.00;;;23.40
11240;BMP180;5677;48.488;13.436;2022-08-01T05:44:18;97719.00;;;23.40
11240;BMP180;5677;48.488;13.436;2022-08-01T05:46:45;97722.00;;;23.40
11240;BMP180;5677;48.488;13.436;2022-08-01T05:49:13;97721.00;;;23.40
11240;BMP180;5677;48.488;13.436;2022-08-01T05:51:40;97728.00;;;23.40
11240;BMP180;5677;48.488;13.436;2022-08-01T05:54:07;97722.00;;;23.40
11240;BMP180;5677;48.488;13.436;2022-08-01T05:56:34;97731.00;;;23.40
11240;BMP180;5677;48.488;13.436;2022-08-01T05:59:03;97734.00;;;23.40
11240;BMP180;5677;48.488;13.436;2022-08-01T06:01:30;97734.00;;;23.30
11240;BMP180;5677;48.488;13.436;2022-08-01T06:03:57;97735.00;;;23.30
11240;BMP180;5677;48.488;13.436;2022-08-01T06:06:24;97733.00;;;23.30
11240;BMP180;5677;48.488;13.436;2022-08-01T06:08:51;97740.00;;;23.30
11240;BMP180;5677;48.488;13.436;2022-08-01T06:11:18;97739.00;;;23.30
11240;BMP180;5677;48.488;13.436;2022-08-01T06:13:45;97750.00;;;23.30
11240;BMP180;5677;48.488;13.436;2022-08-01T06:16:13;97748.00;;;23.30
11240;BMP180;5677;48.488;13.436;2022-08-01T06:18:40;97747.00;;;23.30
11240;BMP180;5677;48.488;13.436;2022-08-01T06:21:07;97753.00;;;23.30
11240;BMP180;5677;48.488;13.436;2022-08-01T06:23:34;97751.00;;;23.30
11240;BMP180;5677;48.488;13.436;2022-08-01T06:26:01;97762.00;;;23.30
11240;BMP180;5677;48.488;13.436;2022-08-01T06:28:28;97760.00;;;23.30
11240;BMP180;5677;48.488;13.436;2022-08-01T06:30:55;97758.00;;;23.20
11240;BMP180;5677;48.488;13.436;2022-08-01T06:33:25;97766.00;;;23.20
11240;BMP180;5677;48.488;13.436;2022-08-01T06:35:52;97760.00;;;23.20
11240;BMP180;5677;48.488;13.436;2022-08-01T06:38:19;97771.00;;;23.30
11240;BMP180;5677;48.488;13.436;2022-08-01T06:40:46;97771.00;;;23.30
11240;BMP180;5677;48.488;13.436;2022-08-01T06:43:13;97776.00;;;23.30
11240;BMP180;5677;48.488;13.436;2022-08-01T06:45:41;97771.00;;;23.30
11240;BMP180;5677;48.488;13.436;2022-08-01T06:48:08;97770.00;;;23.30
11240;BMP180;5677;48.488;13.436;2022-08-01T06:50:36;97767.00;;;23.30
11240;BMP180;5677;48.488;13.436;2022-08-01T06:53:03;97766.00;;;23.30
11240;BMP180;5677;48.488;13.436;2022-08-01T06:55:31;97771.00;;;23.30
11240;BMP180;5677;48.488;13.436;2022-08-01T06:57:58;97762.00;;;23.30
11240;BMP180;5677;48.488;13.436;2022-08-01T07:00:26;97768.00;;;23.30
11240;BMP180;5677;48.488;13.436;2022-08-01T07:02:55;97775.00;;;23.30
11240;BMP180;5677;48.488;13.436;2022-08-01T07:05:24;97775.00;;;23.30
11240;BMP180;5677;48.488;13.436;2022-08-01T07:07:52;97775.00;;;23.30
11240;BMP180;5677;48.488;13.436;2022-08-01T07:10:19;97785.00;;;23.30
11240;BMP180;5677;48.488;13.436;2022-08-01T07:12:46;97786.00;;;23.30
11240;BMP180;5677;48.488;13.436;2022-08-01T07:15:14;97792.00;;;23.30
11240;BMP180;5677;48.488;13.436;2022-08-01T07:17:42;97790.00;;;23.40
11240;BMP180;5677;48.488;13.436;2022-08-01T07:20:12;97791.00;;;23.40
11240;BMP180;5677;48.488;13.436;2022-08-01T07:22:39;97780.00;;;23.40
11240;BMP180;5677;48.488;13.436;2022-08-01T07:25:08;97785.00;;;23.50
11240;BMP180;5677;48.488;13.436;2022-08-01T07:27:37;97782.00;;;23.50
11240;BMP180;5677;48.488;13.436;2022-08-01T07:30:05;97792.00;;;23.50
11240;BMP180;5677;48.488;13.436;2022-08-01T07:32:33;97786.00;;;23.60
11240;BMP180;5677;48.488;13.436;2022-08-01T07:35:01;97779.00;;;23.60
11240;BMP180;5677;48.488;13.436;2022-08-01T07:37:28;97780.00;;;23.60
11240;BMP180;5677;48.488;13.436;2022-08-01T07:39:54;97777.00;;;23.60
11240;BMP180;5677;48.488;13.436;2022-08-01T07:42:23;97780.00;;;23.60
11240;BMP180;5677;48.488;13.436;2022-08-01T07:44:50;97783.00;;;23.60
11240;BMP180;5677;48.488;13.436;2022-08-01T07:47:24;97786.00;;;23.60
11240;BMP180;5677;48.488;13.436;2022-08-01T07:49:51;97781.00;;;23.60
11240;BMP180;5677;48.488;13.436;2022-08-01T07:52:19;97781.00;;;23.60
11240;BMP180;5677;48.488;13.436;2022-08-01T07:54:45;97784.00;;;23.60
11240;BMP180;5677;48.488;13.436;2022-08-01T07:57:12;97787.00;;;23.70
11240;BMP180;5677;48.488;13.436;2022-08-01T07:59:41;97783.00;;;23.70
11240;BMP180;5677;48.488;13.436;2022-08-01T08:02:08;97788.00;;;23.70
11240;BMP180;5677;48.488;13.436;2022-08-01T08:04:35;97796.00;;;23.70
11240;BMP180;5677;48.488;13.436;2022-08-01T08:07:02;97793.00;;;23.70
11240;BMP180;5677;48.488;13.436;2022-08-01T08:09:29;97787.00;;;23.70
11240;BMP180;5677;48.488;13.436;2022-08-01T08:11:56;97786.00;;;23.80
11240;BMP180;5677;48.488;13.436;2022-08-01T08:14:23;97779.00;;;23.80
11240;BMP180;5677;48.488;13.436;2022-08-01T08:16:52;97786.00;;;23.80
11240;BMP180;5677;48.488;13.436;2022-08-01T08:19:19;97785.00;;;23.80
11240;BMP180;5677;48.488;13.436;2022-08-01T08:21:46;97789.00;;;23.80
11240;BMP180;5677;48.488;13.436;2022-08-01T08:24:12;97791.00;;;23.80
11240;BMP180;5677;48.488;13.436;2022-08-01T08:26:46;97790.00;;;23.80
11240;BMP180;5677;48.488;13.436;2022-08-01T08:29:13;97792.00;;;23.80
11240;BMP180;5677;48.488;13.436;2022-08-01T08:31:41;97796.00;;;23.80
11240;BMP180;5677;48.488;13.436;2022-08-01T08:34:09;97801.00;;;23.80
11240;BMP180;5677;48.488;13.436;2022-08-01T08:36:36;97795.00;;;23.80
11240;BMP180;5677;48.488;13.436;2022-08-01T08:39:05;97800.00;;;23.80
11240;BMP180;5677;48.488;13.436;2022-08-01T08:41:33;97801.00;;;23.80
11240;BMP180;5677;48.488;13.436;2022-08-01T08:44:00;97794.00;;;23.80
11240;BMP180;5677;48.488;13.436;2022-08-01T08:46:28;97799.00;;;23.80
11240;BMP180;5677;48.488;13.436;2022-08-01T08:48:55;97801.00;;;23.80
11240;BMP180;5677;48.488;13.436;2022-08-01T08:51:26;97798.00;;;23.90
11240;BMP180;5677;48.488;13.436;2022-08-01T08:53:55;97796.00;;;23.80
11240;BMP180;5677;48.488;13.436;2022-08-01T08:56:24;97797.00;;;23.90
11240;BMP180;5677;48.488;13.436;2022-08-01T08:58:52;97795.00;;;23.90
11240;BMP180;5677;48.488;13.436;2022-08-01T09:01:19;97802.00;;;23.90
11240;BMP180;5677;48.488;13.436;2022-08-01T09:03:47;97805.00;;;23.90
11240;BMP180;5677;48.488;13.436;2022-08-01T09:06:14;97798.00;;;23.90
11240;BMP180;5677;48.488;13.436;2022-08-01T09:08:42;97799.00;;;23.90
11240;BMP180;5677;48.488;13.436;2022-08-01T09:11:10;97793.00;;;23.90
11240;BMP180;5677;48.488;13.436;2022-08-01T09:13:37;97801.00;;;23.90
11240;BMP180;5677;48.488;13.436;2022-08-01T09:16:05;97801.00;;;23.90
11240;BMP180;5677;48.488;13.436;2022-08-01T09:18:34;97796.00;;;23.90
11240;BMP180;5677;48.488;13.436;2022-08-01T09:21:12;97799.00;;;23.90
11240;BMP180;5677;48.488;13.436;2022-08-01T09:23:45;97799.00;;;23.90
11240;BMP180;5677;48.488;13.436;2022-08-01T09:26:14;97799.00;;;23.90
11240;BMP180;5677;48.488;13.436;2022-08-01T09:28:43;97799.00;;;24.00
11240;BMP180;5677;48.488;13.436;2022-08-01T09:31:12;97794.00;;;24.00
11240;BMP180;5677;48.488;13.436;2022-08-01T09:33:53;97795.00;;;24.00
11240;BMP180;5677;48.488;13.436;2022-08-01T09:36:23;97796.00;;;24.00
11240;BMP180;5677;48.488;13.436;2022-08-01T09:38:53;97791.00;;;24.00
11240;BMP180;5677;48.488;13.436;2022-08-01T09:41:30;97789.00;;;24.00
11240;BMP180;5677;48.488;13.436;2022-08-01T09:43:58;97789.00;;;24.10
11240;BMP180;5677;48.488;13.436;2022-08-01T09:46:25;97794.00;;;24.10
11240;BMP180;5677;48.488;13.436;2022-08-01T09:49:01;97798.00;;;24.10
11240;BMP180;5677;48.488;13.436;2022-08-01T09:51:31;97790.00;;;24.10
11240;BMP180;5677;48.488;13.436;2022-08-01T09:54:00;97783.00;;;24.20
11240;BMP180;5677;48.488;13.436;2022-08-01T09:56:37;97787.00;;;24.20
11240;BMP180;5677;48.488;13.436;2022-08-01T09:59:05;97785.00;;;24.20
11240;BMP180;5677;48.488;13.436;2022-08-01T10:01:45;97777.00;;;24.20
11240;BMP180;5677;48.488;13.436;2022-08-01T10:04:15;97777.00;;;24.30
11240;BMP180;5677;48.488;13.436;2022-08-01T10:06:45;97781.00;;;24.30
11240;BMP180;5677;48.488;13.436;2022-08-01T10:09:27;97776.00;;;24.30
11240;BMP180;5677;48.488;13.436;2022-08-01T10:11:56;97774.00;;;24.30
11240;BMP180;5677;48.488;13.436;2022-08-01T10:14:27;97783.00;;;24.40
11240;BMP180;5677;48.488;13.436;2022-08-01T10:16:57;97776.00;;;24.30
11240;BMP180;5677;48.488;13.436;2022-08-01T10:19:26;97777.00;;;24.30
11240;BMP180;5677;48.488;13.436;2022-08-01T10:21:55;97769.00;;;24.30
11240;BMP180;5677;48.488;13.436;2022-08-01T10:24:25;97757.00;;;24.30
11240;BMP180;5677;48.488;13.436;2022-08-01T10:26:58;97756.00;;;24.30
11240;BMP180;5677;48.488;13.436;2022-08-01T10:29:36;97761.00;;;24.30
11240;BMP180;5677;48.488;13.436;2022-08-01T10:32:05;97755.00;;;24.30
11240;BMP180;5677;48.488;13.436;2022-08-01T10:34:35;97756.00;;;24.20
11240;BMP180;5677;48.488;13.436;2022-08-01T10:37:03;97760.00;;;24.20
11240;BMP180;5677;48.488;13.436;2022-08-01T10:39:33;97756.00;;;24.20
11240;BMP180;5677;48.488;13.436;2022-08-01T10:42:01;97753.00;;;24.20
11240;BMP180;5677;48.488;13.436;2022-08-01T10:44:31;97751.00;;;24.20
11240;BMP180;5677;48.488;13.436;2022-08-01T10:47:06;97757.00;;;24.20
11240;BMP180;5677;48.488;13.436;2022-08-01T10:49:41;97753.00;;;24.20
11240;BMP180;5677;48.488;13.436;2022-08-01T10:52:15;97749.00;;;24.20
11240;BMP180;5677;48.488;13.436;2022-08-01T10:54:44;97751.00;;;24.20
11240;BMP180;5677;48.488;13.436;2022-08-01T10:57:12;97749.00;;;24.20
11240;BMP180;5677;48.488;13.436;2022-08-01T10:59:48;97750.00;;;24.20
11240;BMP180;5677;48.488;13.436;2022-08-01T11:02:28;97743.00;;;24.20
11240;BMP180;5677;48.488;13.436;2022-08-01T11:04:58;97735.00;;;24.20
11240;BMP180;5677;48.488;13.436;2022-08-01T11:07:43;97734.00;;;24.20
11240;BMP180;5677;48.488;13.436;2022-08-01T11:10:23;97719.00;;;24.20
11240;BMP180;5677;48.488;13.436;2022-08-01T11:12:51;97721.00;;;24.20
11240;BMP180;5677;48.488;13.436;2022-08-01T11:15:23;97716.00;;;24.20
11240;BMP180;5677;48.488;13.436;2022-08-01T11:17:55;97720.00;;;24.20
11240;BMP180;5677;48.488;13.436;2022-08-01T11:20:24;97715.00;;;24.30
11240;BMP180;5677;48.488;13.436;2022-08-01T11:23:15;97721.00;;;24.20
11240;BMP180;5677;48.488;13.436;2022-08-01T11:26:13;97710.00;;;24.30
11240;BMP180;5677;48.488;13.436;2022-08-01T11:31:30;97712.00;;;24.30
11240;BMP180;5677;48.488;13.436;2022-08-01T11:33:59;97712.00;;;24.30
11240;BMP180;5677;48.488;13.436;2022-08-01T11:36:27;97705.00;;;24.30
11240;BMP180;5677;48.488;13.436;2022-08-01T11:39:17;97712.00;;;24.30
11240;BMP180;5677;48.488;13.436;2022-08-01T11:41:48;97715.00;;;24.30
11240;BMP180;5677;48.488;13.436;2022-08-01T11:44:21;97706.00;;;24.30
11240;BMP180;5677;48.488;13.436;2022-08-01T11:46:59;97731.00;;;24.30
11240;BMP180;5677;48.488;13.436;2022-08-01T11:49:54;97740.00;;;24.30
11240;BMP180;5677;48.488;13.436;2022-08-01T11:52:27;97739.00;;;24.30
11240;BMP180;5677;48.488;13.436;2022-08-01T11:54:57;97742.00;;;24.20
11240;BMP180;5677;48.488;13.436;2022-08-01T11:57:30;97749.00;;;24.20
11240;BMP180;5677;48.488;13.436;2022-08-01T12:00:06;97754.00;;;24.20
11240;BMP180;5677;48.488;13.436;2022-08-01T12:02:36;97744.00;;;24.20
11240;BMP180;5677;48.488;13.436;2022-08-01T12:05:07;97745.00;;;24.20
11240;BMP180;5677;48.488;13.436;2022-08-01T12:07:36;97745.00;;;24.20
11240;BMP180;5677;48.488;13.436;2022-08-01T12:10:06;97740.00;;;24.20
11240;BMP180;5677;48.488;13.436;2022-08-01T12:12:37;97736.00;;;24.20
11240;BMP180;5677;48.488;13.436;2022-08-01T12:15:11;97735.00;;;24.20
11240;BMP180;5677;48.488;13.436;2022-08-01T12:17:40;97734.00;;;24.20
11240;BMP180;5677;48.488;13.436;2022-08-01T12:20:13;97733.00;;;24.30
11240;BMP180;5677;48.488;13.436;2022-08-01T12:22:40;97718.00;;;24.20
11240;BMP180;5677;48.488;13.436;2022-08-01T12:25:11;97723.00;;;24.30
11240;BMP180;5677;48.488;13.436;2022-08-01T12:27:41;97711.00;;;24.20
11240;BMP180;5677;48.488;13.436;2022-08-01T12:30:12;97718.00;;;24.20
11240;BMP180;5677;48.488;13.436;2022-08-01T12:32:42;97711.00;;;24.20
11240;BMP180;5677;48.488;13.436;2022-08-01T12:35:12;97712.00;;;24.20
11240;BMP180;5677;48.488;13.436;2022-08-01T12:37:42;97711.00;;;24.30
11240;BMP180;5677;48.488;13.436;2022-08-01T12:40:13;97722.00;;;24.30
11240;BMP180;5677;48.488;13.436;2022-08-01T12:42:44;97710.00;;;24.30
11240;BMP180;5677;48.488;13.436;2022-08-01T12:45:15;97715.00;;;24.30
11240;BMP180;5677;48.488;13.436;2022-08-01T12:47:45;97710.00;;;24.30
11240;BMP180;5677;48.488;13.436;2022-08-01T12:50:14;97704.00;;;24.30
11240;BMP180;5677;48.488;13.436;2022-08-01T12:52:42;97718.00;;;24.30
11240;BMP180;5677;48.488;13.436;2022-08-01T12:55:13;97708.00;;;24.30
11240;BMP180;5677;48.488;13.436;2022-08-01T12:57:44;97708.00;;;24.30
11240;BMP180;5677;48.488;13.436;2022-08-01T13:00:22;97704.00;;;24.30
11240;BMP180;5677;48.488;13.436;2022-08-01T13:03:01;97708.00;;;24.30
11240;BMP180;5677;48.488;13.436;2022-08-01T13:05:42;97706.00;;;24.30
11240;BMP180;5677;48.488;13.436;2022-08-01T13:08:10;97700.00;;;24.40
11240;BMP180;5677;48.488;13.436;2022-08-01T13:10:38;97706.00;;;24.40
11240;BMP180;5677;48.488;13.436;2022-08-01T13:13:11;97708.00;;;24.40
11240;BMP180;5677;48.488;13.436;2022-08-01T13:15:40;97699.00;;;24.40
11240;BMP180;5677;48.488;13.436;2022-08-01T13:18:27;97706.00;;;24.50
11240;BMP180;5677;48.488;13.436;2022-08-01T13:21:09;97701.00;;;24.50
11240;BMP180;5677;48.488;13.436;2022-08-01T13:23:37;97702.00;;;24.50
11240;BMP180;5677;48.488;13.436;2022-08-01T13:26:04;97698.00;;;24.50
11240;BMP180;5677;48.488;13.436;2022-08-01T13:28:33;97710.00;;;24.50
11240;BMP180;5677;48.488;13.436;2022-08-01T13:31:04;97702.00;;;24.50
11240;BMP180;5677;48.488;13.436;2022-08-01T13:33:41;97702.00;;;24.50
11240;BMP180;5677;48.488;13.436;2022-08-01T13:36:10;97704.00;;;24.50
11240;BMP180;5677;48.488;13.436;2022-08-01T13:38:37;97693.00;;;24.50
11240;BMP180;5677;48.488;13.436;2022-08-01T13:41:22;97701.00;;;24.50
11240;BMP180;5677;48.488;13.436;2022-08-01T13:43:51;97695.00;;;24.50
11240;BMP180;5677;48.488;13.436;2022-08-01T13:46:18;97697.00;;;24.50
11240;BMP180;5677;48.488;13.436;2022-08-01T13:48:45;97698.00;;;24.60
11240;BMP180;5677;48.488;13.436;2022-08-01T13:51:12;97692.00;;;24.60
11240;BMP180;5677;48.488;13.436;2022-08-01T13:53:39;97695.00;;;24.60
11240;BMP180;5677;48.488;13.436;2022-08-01T13:56:06;97684.00;;;24.60
11240;BMP180;5677;48.488;13.436;2022-08-01T13:58:33;97684.00;;;24.60
11240;BMP180;5677;48.488;13.436;2022-08-01T14:01:02;97682.00;;;24.60
11240;BMP180;5677;48.488;13.436;2022-08-01T14:03:29;97680.00;;;24.60
11240;BMP180;5677;48.488;13.436;2022-08-01T14:05:56;97681.00;;;24.60
11240;BMP180;5677;48.488;13.436;2022-08-01T14:08:24;97690.00;;;24.70
11240;BMP180;5677;48.488;13.436;2022-08-01T14:10:51;97687.00;;;24.60
11240;BMP180;5677;48.488;13.436;2022-08-01T14:13:19;97692.00;;;24.60
11240;BMP180;5677;48.488;13.436;2022-08-01T14:15:46;97694.00;;;24.60
11240;BMP180;5677;48.488;13.436;2022-08-01T14:18:14;97690.00;;;24.60
11240;BMP180;5677;48.488;13.436;2022-08-01T14:20:41;97693.00;;;24.60
11240;BMP180;5677;48.488;13.436;2022-08-01T14:23:09;97693.00;;;24.60
11240;BMP180;5677;48.488;13.436;2022-08-01T14:25:37;97699.00;;;24.60
11240;BMP180;5677;48.488;13.436;2022-08-01T14:28:05;97693.00;;;24.60